KKLS/KLS METAR and TAF weather

Enter ICAO airport designator
Station Type Date Time Source
KKLS METAR 2020/06/05 12:56 UTC NOAA

KKLS 051256Z AUTO 00000KT 10SM CLR 11/09 A2979 RMK AO2 SLP091 T01110089


Station Type Date Time Source
KKLS Decoded METAR 2020/06/05 12:56 UTC NOAA

Kelso, Kelso-Longview Airport, WA, United States (KKLS) 46-07N 122-54W
Jun 05, 2020 - 08:56 AM EDT / 2020.06.05 1256 UTC
Wind: Calm:0
Visibility: 10 mile(s):0
Sky conditions: clear
Temperature: 52.0 F (11.1 C)
Dew Point: 48.0 F (8.9 C)
Relative Humidity: 86%
Pressure (altimeter): 29.79 in. Hg (1008 hPa)
ob: KKLS 051256Z AUTO 00000KT 10SM CLR 11/09 A2979 RMK AO2 SLP091 T01110089
cycle: 13

Station Type Date Time Source
KKLS TAF UTC NOAA

Error!

Example: see airport list